Aérodrome :
LOGIN :

S'inscrire | Disclaimer

   EN    FR    IT 

 










Légende :    VFR   VFR Marginal   IFR   IFR Intensif   IFR Très Intensif
Visi : 
Plafond : 
>= 8 km
>= 3000ft
5 à 8 km
1000 à 3000 ft
1500m à 5 km
500 à 1000 ft
800 à 1500m
200 à 500 ft
< 800m
< 200 ft
Symboles :   Orages  Brouillard  Fortes neiges  Fortes précipitations  Vent > 20 kt
SIGMETs :   Divers  Orages  Givrage  Turbulence  Onde Orograph.  Cendres Volcan.







- Altitude de l'aérodrome : 584 ft
- Voir les cartes d'approche


LFPV - Villacoublay Vélizy

DERNIER METAR :
  • 222130Z AUTO 03006KT 9999 ///TCU 08/06 Q1008 TEMPO 4000 SHRA BECMG 10010KT BKN040 BKN060

METARs EXPIRÉS :
  • 222100Z AUTO 04004KT CAVOK 08/06 Q1008 TEMPO 4000 SHRA FEW012 BKN035TCU BECMG 10010KT
  • 222030Z AUTO 03005KT CAVOK 08/06 Q1008 TEMPO 4000 SHRA FEW012 BKN035TCU BECMG 10010KT
  • 222000Z AUTO 02003KT 9999 SCT047 BKN076 OVC086 08/05 Q1008 TEMPO BKN035TCU BECMG 17010KT
  • 221930Z AUTO VRB01KT 9999 BKN047 BKN054 OVC064 07/05 Q1008 TEMPO BKN035TCU
  • 221900Z AUTO VRB03KT 9999 -RADZ BKN047 BKN056 OVC066 07/05 Q1008 TEMPO BKN035TCU

TAF TAF LFPV
Valide du 22 à 21h jusqu'au 23 à 21h UTC


222000Z 2221/2321 10010KT 9999 BKN040 BKN060
TEMPO 2221/2223 4000 SHRA FEW012 BKN035TCU
BECMG 2308/2310 BKN015
TEMPO 2310/2314 4000 RA BKN012
TEMPO 2314/2316 3000 SHRA BKN012CB
BECMG 2318/2320 CAVOK
Pas de NOTAMs connus pour ce terrain.



MET'MAP, la Météo Aéronautique d'un coup d'oeil ! - Copyright ORBIFLY Décembre 2007 - Disclaimer

ORBIFLY MET'MAP TEAM :

Programmation & Développement : Alexandra Zaïnal
Conception & Développement : Baudouin d'Aumeries
Co-Programmation & Développement : Marc-Olivier Méhu
Soutien technique & logistique : Manuel Goepfert

Contact : metmap@orbifly.com




SOURCES & CREDITS :

   NOAA